sensor_id;sensor_type;location;lat;lon;timestamp;pressure;altitude;pressure_sealevel;temperature;humidity
29169;BME280;16219;42.864;23.360;2023-01-29T00:00:33;95942.13;;;0.68;100.00
29169;BME280;16219;42.864;23.360;2023-01-29T00:03:02;95941.66;;;0.71;100.00
29169;BME280;16219;42.864;23.360;2023-01-29T00:05:35;95939.31;;;0.69;100.00
29169;BME280;16219;42.864;23.360;2023-01-29T00:08:02;95945.34;;;0.75;100.00
29169;BME280;16219;42.864;23.360;2023-01-29T00:10:29;95943.09;;;0.84;100.00
29169;BME280;16219;42.864;23.360;2023-01-29T00:12:56;95947.06;;;0.91;100.00
29169;BME280;16219;42.864;23.360;2023-01-29T00:15:23;95947.31;;;0.90;100.00
29169;BME280;16219;42.864;23.360;2023-01-29T00:17:50;95947.56;;;0.88;100.00
29169;BME280;16219;42.864;23.360;2023-01-29T00:20:18;95952.56;;;0.95;100.00
29169;BME280;16219;42.864;23.360;2023-01-29T00:22:45;95949.13;;;0.89;100.00
29169;BME280;16219;42.864;23.360;2023-01-29T00:25:12;95957.94;;;0.88;100.00
29169;BME280;16219;42.864;23.360;2023-01-29T00:27:39;95950.19;;;0.93;100.00
29169;BME280;16219;42.864;23.360;2023-01-29T00:30:07;95956.53;;;1.03;100.00
29169;BME280;16219;42.864;23.360;2023-01-29T00:32:37;95956.09;;;1.11;100.00
29169;BME280;16219;42.864;23.360;2023-01-29T00:35:06;95958.16;;;1.09;100.00
29169;BME280;16219;42.864;23.360;2023-01-29T00:37:35;95960.69;;;1.04;100.00
29169;BME280;16219;42.864;23.360;2023-01-29T00:40:02;95958.69;;;1.11;100.00
29169;BME280;16219;42.864;23.360;2023-01-29T00:42:29;95957.75;;;1.22;100.00
29169;BME280;16219;42.864;23.360;2023-01-29T00:45:14;95962.06;;;1.11;100.00
29169;BME280;16219;42.864;23.360;2023-01-29T00:47:41;95967.06;;;1.18;100.00
29169;BME280;16219;42.864;23.360;2023-01-29T00:50:10;95965.47;;;1.12;100.00
29169;BME280;16219;42.864;23.360;2023-01-29T00:52:39;95959.03;;;1.19;100.00
29169;BME280;16219;42.864;23.360;2023-01-29T00:55:07;95958.53;;;1.22;100.00
29169;BME280;16219;42.864;23.360;2023-01-29T00:57:36;95959.41;;;1.06;100.00
29169;BME280;16219;42.864;23.360;2023-01-29T01:00:08;95949.19;;;0.94;100.00
29169;BME280;16219;42.864;23.360;2023-01-29T01:02:35;95961.56;;;1.14;100.00
29169;BME280;16219;42.864;23.360;2023-01-29T01:05:20;95959.06;;;1.24;100.00
29169;BME280;16219;42.864;23.360;2023-01-29T01:07:50;95958.03;;;1.25;100.00
29169;BME280;16219;42.864;23.360;2023-01-29T01:10:20;95963.16;;;1.15;100.00
29169;BME280;16219;42.864;23.360;2023-01-29T01:12:49;95965.78;;;1.20;100.00
29169;BME280;16219;42.864;23.360;2023-01-29T01:15:18;95959.03;;;1.19;100.00
29169;BME280;16219;42.864;23.360;2023-01-29T01:17:45;95960.78;;;1.14;100.00
29169;BME280;16219;42.864;23.360;2023-01-29T01:20:13;95954.38;;;1.21;100.00
29169;BME280;16219;42.864;23.360;2023-01-29T01:22:40;95959.56;;;1.21;100.00
29169;BME280;16219;42.864;23.360;2023-01-29T01:25:09;95958.22;;;1.19;100.00
29169;BME280;16219;42.864;23.360;2023-01-29T01:27:36;95955.59;;;1.14;100.00
29169;BME280;16219;42.864;23.360;2023-01-29T01:30:08;95953.72;;;1.09;100.00
29169;BME280;16219;42.864;23.360;2023-01-29T01:32:36;95957.75;;;1.22;100.00
29169;BME280;16219;42.864;23.360;2023-01-29T01:35:04;95961.03;;;1.12;100.00
29169;BME280;16219;42.864;23.360;2023-01-29T01:37:31;95965.00;;;1.20;100.00
29169;BME280;16219;42.864;23.360;2023-01-29T01:40:02;95957.75;;;1.22;100.00
29169;BME280;16219;42.864;23.360;2023-01-29T01:42:31;95957.75;;;1.22;100.00
29169;BME280;16219;42.864;23.360;2023-01-29T01:45:00;95965.88;;;1.31;100.00
29169;BME280;16219;42.864;23.360;2023-01-29T01:47:34;95967.16;;;1.28;100.00
29169;BME280;16219;42.864;23.360;2023-01-29T01:50:07;95950.22;;;1.20;100.00
29169;BME280;16219;42.864;23.360;2023-01-29T01:52:38;95960.97;;;1.34;100.00
29169;BME280;16219;42.864;23.360;2023-01-29T01:55:07;95952.66;;;1.32;100.00
29169;BME280;16219;42.864;23.360;2023-01-29T01:57:37;95962.84;;;1.39;100.00
29169;BME280;16219;42.864;23.360;2023-01-29T02:00:07;95960.53;;;1.42;100.00
29169;BME280;16219;42.864;23.360;2023-01-29T02:02:43;95963.13;;;1.42;100.00
29169;BME280;16219;42.864;23.360;2023-01-29T02:05:29;95963.41;;;1.46;100.00
29169;BME280;16219;42.864;23.360;2023-01-29T02:08:17;95960.25;;;1.44;100.00
29169;BME280;16219;42.864;23.360;2023-01-29T02:11:04;95964.78;;;1.54;100.00
29169;BME280;16219;42.864;23.360;2023-01-29T02:13:33;95971.28;;;1.56;100.00
29169;BME280;16219;42.864;23.360;2023-01-29T02:16:00;95973.03;;;1.45;100.00
29169;BME280;16219;42.864;23.360;2023-01-29T02:18:27;95976.66;;;1.44;100.00
29169;BME280;16219;42.864;23.360;2023-01-29T02:21:06;95965.53;;;1.22;100.00
29169;BME280;16219;42.864;23.360;2023-01-29T02:29:49;95978.66;;;1.32;100.00
29169;BME280;16219;42.864;23.360;2023-01-29T02:32:23;95961.22;;;1.33;100.00
29169;BME280;16219;42.864;23.360;2023-01-29T02:35:07;95978.72;;;1.42;100.00
29169;BME280;16219;42.864;23.360;2023-01-29T02:38:00;95978.22;;;1.45;100.00
29169;BME280;16219;42.864;23.360;2023-01-29T02:40:37;95975.09;;;1.43;100.00
29169;BME280;16219;42.864;23.360;2023-01-29T02:43:17;95982.13;;;1.48;100.00
29169;BME280;16219;42.864;23.360;2023-01-29T02:45:54;95985.53;;;1.48;100.00
29169;BME280;16219;42.864;23.360;2023-01-29T02:48:29;95980.88;;;1.50;100.00
29169;BME280;16219;42.864;23.360;2023-01-29T02:51:03;95985.28;;;1.50;100.00
29169;BME280;16219;42.864;23.360;2023-01-29T02:53:40;95985.44;;;1.38;100.00
29169;BME280;16219;42.864;23.360;2023-01-29T02:56:14;95992.72;;;1.36;100.00
29169;BME280;16219;42.864;23.360;2023-01-29T02:58:44;95983.31;;;1.35;100.00
29169;BME280;16219;42.864;23.360;2023-01-29T03:01:17;95994.84;;;1.44;100.00
29169;BME280;16219;42.864;23.360;2023-01-29T03:03:49;95996.66;;;1.44;100.00
29169;BME280;16219;42.864;23.360;2023-01-29T03:06:20;95995.31;;;1.36;100.00
29169;BME280;16219;42.864;23.360;2023-01-29T03:08:53;95990.16;;;1.41;100.00
29169;BME280;16219;42.864;23.360;2023-01-29T03:11:20;95985.19;;;1.40;100.00
29169;BME280;16219;42.864;23.360;2023-01-29T03:13:50;95984.41;;;1.39;100.00
29169;BME280;16219;42.864;23.360;2023-01-29T03:16:25;95992.38;;;1.28;100.00
29169;BME280;16219;42.864;23.360;2023-01-29T03:18:59;95986.97;;;1.34;100.00
29169;BME280;16219;42.864;23.360;2023-01-29T03:21:30;95994.84;;;1.44;100.00
29169;BME280;16219;42.864;23.360;2023-01-29T03:24:31;96001.59;;;1.40;100.00
29169;BME280;16219;42.864;23.360;2023-01-29T03:27:23;95994.31;;;1.42;100.00
29169;BME280;16219;42.864;23.360;2023-01-29T03:30:12;96002.59;;;1.39;100.00
29169;BME280;16219;42.864;23.360;2023-01-29T03:33:25;96005.50;;;1.43;100.00
29169;BME280;16219;42.864;23.360;2023-01-29T03:35:57;95990.13;;;1.36;100.00
29169;BME280;16219;42.864;23.360;2023-01-29T03:38:25;95996.44;;;1.45;100.00
29169;BME280;16219;42.864;23.360;2023-01-29T03:41:00;95986.72;;;1.36;100.00
29169;BME280;16219;42.864;23.360;2023-01-29T03:43:33;96005.78;;;1.46;100.00
29169;BME280;16219;42.864;23.360;2023-01-29T03:46:05;95997.22;;;1.46;100.00
29169;BME280;16219;42.864;23.360;2023-01-29T03:48:38;95998.53;;;1.48;100.00
29169;BME280;16219;42.864;23.360;2023-01-29T03:51:16;96001.19;;;1.54;100.00
29169;BME280;16219;42.864;23.360;2023-01-29T03:53:52;96000.88;;;1.50;100.00
29169;BME280;16219;42.864;23.360;2023-01-29T03:56:43;96001.66;;;1.50;100.00
29169;BME280;16219;42.864;23.360;2023-01-29T03:59:24;95994.63;;;1.46;100.00
29169;BME280;16219;42.864;23.360;2023-01-29T04:02:12;96000.59;;;1.46;100.00
29169;BME280;16219;42.864;23.360;2023-01-29T04:04:47;95998.81;;;1.52;100.00
29169;BME280;16219;42.864;23.360;2023-01-29T04:07:19;95987.63;;;1.52;100.00
29169;BME280;16219;42.864;23.360;2023-01-29T04:09:59;96002.38;;;1.41;100.00
29169;BME280;16219;42.864;23.360;2023-01-29T04:12:37;95997.84;;;1.31;100.00
29169;BME280;16219;42.864;23.360;2023-01-29T04:15:09;95996.75;;;1.27;100.00
29169;BME280;16219;42.864;23.360;2023-01-29T04:17:42;96006.22;;;1.38;100.00
29169;BME280;16219;42.864;23.360;2023-01-29T04:20:21;96006.06;;;1.45;100.00
29169;BME280;16219;42.864;23.360;2023-01-29T04:22:50;96010.16;;;1.41;100.00
29169;BME280;16219;42.864;23.360;2023-01-29T04:25:20;96014.34;;;1.42;100.00
29169;BME280;16219;42.864;23.360;2023-01-29T04:27:57;96004.72;;;1.42;100.00
29169;BME280;16219;42.864;23.360;2023-01-29T04:30:37;96012.50;;;1.42;100.00
29169;BME280;16219;42.864;23.360;2023-01-29T04:33:16;96016.38;;;1.40;100.00
29169;BME280;16219;42.864;23.360;2023-01-29T04:36:13;96003.03;;;1.31;100.00
29169;BME280;16219;42.864;23.360;2023-01-29T04:38:51;96016.63;;;1.38;100.00
29169;BME280;16219;42.864;23.360;2023-01-29T04:41:25;96014.50;;;1.35;100.00
29169;BME280;16219;42.864;23.360;2023-01-29T04:44:00;96016.59;;;1.33;100.00
29169;BME280;16219;42.864;23.360;2023-01-29T04:46:33;96010.91;;;1.36;100.00
29169;BME280;16219;42.864;23.360;2023-01-29T04:49:13;96018.06;;;1.24;100.00
29169;BME280;16219;42.864;23.360;2023-01-29T04:51:48;96023.56;;;1.28;100.00
29169;BME280;16219;42.864;23.360;2023-01-29T04:54:23;96030.63;;;1.32;100.00
29169;BME280;16219;42.864;23.360;2023-01-29T04:56:57;96020.22;;;1.32;100.00
29169;BME280;16219;42.864;23.360;2023-01-29T04:59:32;96023.84;;;1.31;100.00
29169;BME280;16219;42.864;23.360;2023-01-29T05:02:01;96023.59;;;1.33;100.00
29169;BME280;16219;42.864;23.360;2023-01-29T05:04:31;96028.84;;;1.38;100.00
29169;BME280;16219;42.864;23.360;2023-01-29T05:07:02;96031.69;;;1.36;100.00
29169;BME280;16219;42.864;23.360;2023-01-29T05:09:30;96028.56;;;1.34;100.00
29169;BME280;16219;42.864;23.360;2023-01-29T05:11:59;96030.13;;;1.35;100.00
29169;BME280;16219;42.864;23.360;2023-01-29T05:14:27;96021.41;;;1.19;100.00
29169;BME280;16219;42.864;23.360;2023-01-29T05:16:56;96031.53;;;1.21;100.00
29169;BME280;16219;42.864;23.360;2023-01-29T05:19:26;96032.16;;;1.28;100.00
29169;BME280;16219;42.864;23.360;2023-01-29T05:21:53;96041.03;;;1.32;100.00
29169;BME280;16219;42.864;23.360;2023-01-29T05:24:23;96037.78;;;1.20;100.00
29169;BME280;16219;42.864;23.360;2023-01-29T05:26:52;96029.72;;;1.21;100.00
29169;BME280;16219;42.864;23.360;2023-01-29T05:29:38;96037.25;;;1.23;100.00
29169;BME280;16219;42.864;23.360;2023-01-29T05:32:07;96039.03;;;1.17;100.00
29169;BME280;16219;42.864;23.360;2023-01-29T05:34:34;96038.84;;;1.24;100.00
29169;BME280;16219;42.864;23.360;2023-01-29T05:37:01;96036.06;;;1.31;100.00
29169;BME280;16219;42.864;23.360;2023-01-29T05:39:29;96042.59;;;1.33;100.00
29169;BME280;16219;42.864;23.360;2023-01-29T05:41:56;96037.13;;;1.35;100.00
29169;BME280;16219;42.864;23.360;2023-01-29T05:44:23;96044.69;;;1.36;100.00
29169;BME280;16219;42.864;23.360;2023-01-29T05:46:50;96052.50;;;1.36;100.00
29169;BME280;16219;42.864;23.360;2023-01-29T05:49:17;96048.88;;;1.37;100.00
29169;BME280;16219;42.864;23.360;2023-01-29T05:51:46;96047.22;;;1.31;100.00
29169;BME280;16219;42.864;23.360;2023-01-29T05:54:14;96058.97;;;1.34;100.00
29169;BME280;16219;42.864;23.360;2023-01-29T05:56:42;96062.91;;;1.36;100.00
29169;BME280;16219;42.864;23.360;2023-01-29T05:59:09;96057.97;;;1.40;100.00
29169;BME280;16219;42.864;23.360;2023-01-29T06:01:36;96054.78;;;1.33;100.00
29169;BME280;16219;42.864;23.360;2023-01-29T06:04:03;96064.94;;;1.34;100.00
29169;BME280;16219;42.864;23.360;2023-01-29T06:06:30;96062.28;;;1.29;100.00
29169;BME280;16219;42.864;23.360;2023-01-29T06:08:57;96064.69;;;1.36;100.00
29169;BME280;16219;42.864;23.360;2023-01-29T06:11:24;96076.59;;;1.32;100.00
29169;BME280;16219;42.864;23.360;2023-01-29T06:13:53;96073.00;;;1.33;100.00
29169;BME280;16219;42.864;23.360;2023-01-29T06:16:20;96073.72;;;1.28;100.00
29169;BME280;16219;42.864;23.360;2023-01-29T06:18:47;96078.91;;;1.28;100.00
29169;BME280;16219;42.864;23.360;2023-01-29T06:21:14;96085.44;;;1.31;100.00
29169;BME280;16219;42.864;23.360;2023-01-29T06:23:41;96087.56;;;1.34;100.00
29169;BME280;16219;42.864;23.360;2023-01-29T06:26:10;96084.66;;;1.30;100.00
29169;BME280;16219;42.864;23.360;2023-01-29T06:28:40;96086.94;;;1.27;100.00
29169;BME280;16219;42.864;23.360;2023-01-29T06:31:09;96091.41;;;1.31;100.00
29169;BME280;16219;42.864;23.360;2023-01-29T06:33:37;96092.34;;;1.20;100.00
29169;BME280;16219;42.864;23.360;2023-01-29T06:36:05;96090.22;;;1.17;100.00
29169;BME280;16219;42.864;23.360;2023-01-29T06:38:32;96104.25;;;1.16;100.00
29169;BME280;16219;42.864;23.360;2023-01-29T06:41:07;96099.84;;;1.16;100.00
29169;BME280;16219;42.864;23.360;2023-01-29T06:43:34;96103.09;;;1.29;100.00
29169;BME280;16219;42.864;23.360;2023-01-29T06:46:01;96101.59;;;1.33;100.00
29169;BME280;16219;42.864;23.360;2023-01-29T06:48:30;96103.66;;;1.36;100.00
29169;BME280;16219;42.864;23.360;2023-01-29T06:51:01;96111.72;;;1.34;100.00
29169;BME280;16219;42.864;23.360;2023-01-29T06:53:28;96119.78;;;1.33;100.00
29169;BME280;16219;42.864;23.360;2023-01-29T06:55:55;96118.47;;;1.35;100.00
29169;BME280;16219;42.864;23.360;2023-01-29T06:58:23;96123.69;;;1.35;100.00
29169;BME280;16219;42.864;23.360;2023-01-29T07:00:50;96126.06;;;1.37;100.00
29169;BME280;16219;42.864;23.360;2023-01-29T07:03:18;96116.13;;;1.34;100.00
29169;BME280;16219;42.864;23.360;2023-01-29T07:05:51;96122.00;;;1.24;100.00
29169;BME280;16219;42.864;23.360;2023-01-29T07:08:18;96127.84;;;1.14;100.00
29169;BME280;16219;42.864;23.360;2023-01-29T07:10:47;96135.69;;;1.36;100.00
29169;BME280;16219;42.864;23.360;2023-01-29T07:13:15;96137.53;;;1.41;100.00
29169;BME280;16219;42.864;23.360;2023-01-29T07:15:42;96140.50;;;1.49;100.00
29169;BME280;16219;42.864;23.360;2023-01-29T07:18:09;96146.22;;;1.52;100.00
29169;BME280;16219;42.864;23.360;2023-01-29T07:20:38;96145.19;;;1.53;100.00
29169;BME280;16219;42.864;23.360;2023-01-29T07:23:08;96148.34;;;1.55;100.00
29169;BME280;16219;42.864;23.360;2023-01-29T07:25:37;96145.78;;;1.60;100.00
29169;BME280;16219;42.864;23.360;2023-01-29T07:28:04;96149.22;;;1.65;100.00
29169;BME280;16219;42.864;23.360;2023-01-29T07:30:32;96150.09;;;1.71;100.00
29169;BME280;16219;42.864;23.360;2023-01-29T07:33:03;96149.03;;;1.72;100.00
29169;BME280;16219;42.864;23.360;2023-01-29T07:35:31;96143.84;;;1.72;100.00
29169;BME280;16219;42.864;23.360;2023-01-29T07:37:58;96152.78;;;1.81;100.00
29169;BME280;16219;42.864;23.360;2023-01-29T07:40:27;96144.50;;;1.84;100.00
29169;BME280;16219;42.864;23.360;2023-01-29T07:42:57;96152.34;;;1.89;100.00
29169;BME280;16219;42.864;23.360;2023-01-29T07:45:26;96149.22;;;1.87;100.00
29169;BME280;16219;42.864;23.360;2023-01-29T07:47:53;96151.22;;;1.80;100.00
29169;BME280;16219;42.864;23.360;2023-01-29T07:50:21;96150.44;;;1.80;100.00
29169;BME280;16219;42.864;23.360;2023-01-29T07:52:48;96144.63;;;1.99;100.00
29169;BME280;16219;42.864;23.360;2023-01-29T07:55:16;96157.78;;;2.15;100.00
29169;BME280;16219;42.864;23.360;2023-01-29T07:57:45;96156.28;;;2.24;100.00
29169;BME280;16219;42.864;23.360;2023-01-29T08:00:13;96155.00;;;2.27;100.00
29169;BME280;16219;42.864;23.360;2023-01-29T08:02:41;96160.22;;;2.27;100.00
29169;BME280;16219;42.864;23.360;2023-01-29T08:05:09;96155.50;;;2.23;100.00
29169;BME280;16219;42.864;23.360;2023-01-29T08:07:36;96172.47;;;2.26;100.00
29169;BME280;16219;42.864;23.360;2023-01-29T08:10:04;96159.88;;;2.18;100.00
29169;BME280;16219;42.864;23.360;2023-01-29T08:12:31;96165.13;;;2.23;100.00
29169;BME280;16219;42.864;23.360;2023-01-29T08:15:00;96174.84;;;2.33;100.00
29169;BME280;16219;42.864;23.360;2023-01-29T08:17:27;96168.84;;;2.32;100.00
29169;BME280;16219;42.864;23.360;2023-01-29T08:19:54;96173.59;;;2.08;100.00
29169;BME280;16219;42.864;23.360;2023-01-29T08:22:22;96177.03;;;2.14;100.00
29169;BME280;16219;42.864;23.360;2023-01-29T08:24:49;96173.38;;;2.15;100.00
29169;BME280;16219;42.864;23.360;2023-01-29T08:27:16;96175.34;;;1.75;100.00
29169;BME280;16219;42.864;23.360;2023-01-29T08:29:43;96183.69;;;1.78;100.00
29169;BME280;16219;42.864;23.360;2023-01-29T08:32:11;96188.41;;;1.81;100.00
29169;BME280;16219;42.864;23.360;2023-01-29T08:34:39;96165.91;;;1.69;100.00
29169;BME280;16219;42.864;23.360;2023-01-29T08:37:06;96199.41;;;1.88;100.00
29169;BME280;16219;42.864;23.360;2023-01-29T08:39:33;96203.09;;;1.92;100.00
29169;BME280;16219;42.864;23.360;2023-01-29T08:42:00;96201.41;;;1.81;100.00
29169;BME280;16219;42.864;23.360;2023-01-29T08:44:28;96200.34;;;1.77;100.00
29169;BME280;16219;42.864;23.360;2023-01-29T08:46:55;96207.84;;;1.73;100.00
29169;BME280;16219;42.864;23.360;2023-01-29T08:49:24;96203.06;;;1.65;100.00
29169;BME280;16219;42.864;23.360;2023-01-29T08:51:52;96207.06;;;1.72;100.00
29169;BME280;16219;42.864;23.360;2023-01-29T08:54:21;96203.66;;;1.72;100.00
29169;BME280;16219;42.864;23.360;2023-01-29T08:56:48;96204.50;;;1.78;100.00
29169;BME280;16219;42.864;23.360;2023-01-29T08:59:15;96202.75;;;1.83;100.00
29169;BME280;16219;42.864;23.360;2023-01-29T09:01:43;96210.34;;;1.90;100.00
29169;BME280;16219;42.864;23.360;2023-01-29T09:04:11;96210.34;;;1.90;100.00
29169;BME280;16219;42.864;23.360;2023-01-29T09:06:39;96204.31;;;1.84;100.00
29169;BME280;16219;42.864;23.360;2023-01-29T09:09:06;96206.53;;;1.97;100.00
29169;BME280;16219;42.864;23.360;2023-01-29T09:11:34;96210.81;;;2.09;100.00
29169;BME280;16219;42.864;23.360;2023-01-29T09:14:01;96204.69;;;2.25;100.00
29169;BME280;16219;42.864;23.360;2023-01-29T09:16:29;96210.03;;;2.35;100.00
29169;BME280;16219;42.864;23.360;2023-01-29T09:18:56;96204.25;;;2.33;100.00
29169;BME280;16219;42.864;23.360;2023-01-29T09:21:23;96208.78;;;2.43;100.00
29169;BME280;16219;42.864;23.360;2023-01-29T09:23:52;96210.88;;;2.46;100.00
29169;BME280;16219;42.864;23.360;2023-01-29T09:26:19;96206.66;;;2.40;100.00
29169;BME280;16219;42.864;23.360;2023-01-29T09:28:47;96201.38;;;2.30;100.00
29169;BME280;16219;42.864;23.360;2023-01-29T09:31:14;96203.41;;;2.22;100.00
29169;BME280;16219;42.864;23.360;2023-01-29T09:33:41;96199.38;;;2.10;100.00
29169;BME280;16219;42.864;23.360;2023-01-29T09:36:09;96199.34;;;2.05;100.00
29169;BME280;16219;42.864;23.360;2023-01-29T09:38:36;96194.91;;;2.05;100.00
29169;BME280;16219;42.864;23.360;2023-01-29T09:41:18;96196.16;;;2.03;100.00
29169;BME280;16219;42.864;23.360;2023-01-29T09:43:50;96194.91;;;2.05;100.00
29169;BME280;16219;42.864;23.360;2023-01-29T09:46:22;96188.72;;;2.11;100.00
29169;BME280;16219;42.864;23.360;2023-01-29T09:48:57;96198.28;;;2.06;100.00
29169;BME280;16219;42.864;23.360;2023-01-29T09:51:30;96184.19;;;2.02;100.00
29169;BME280;16219;42.864;23.360;2023-01-29T09:54:12;96195.47;;;1.85;100.00
29169;BME280;16219;42.864;23.360;2023-01-29T09:56:42;96176.31;;;1.69;100.00
29169;BME280;16219;42.864;23.360;2023-01-29T09:59:12;96192.53;;;1.77;100.00
29169;BME280;16219;42.864;23.360;2023-01-29T10:01:46;96190.19;;;1.75;100.00
29169;BME280;16219;42.864;23.360;2023-01-29T10:07:16;96188.00;;;1.67;100.00
29169;BME280;16219;42.864;23.360;2023-01-29T10:09:59;96191.69;;;1.71;100.00
29169;BME280;16219;42.864;23.360;2023-01-29T10:12:42;96180.00;;;1.73;100.00
29169;BME280;16219;42.864;23.360;2023-01-29T10:15:19;96185.06;;;1.85;100.00
29169;BME280;16219;42.864;23.360;2023-01-29T10:18:02;96175.28;;;1.92;100.00
29169;BME280;16219;42.864;23.360;2023-01-29T10:20:51;96162.31;;;1.97;100.00
29169;BME280;16219;42.864;23.360;2023-01-29T10:23:22;96158.44;;;2.00;100.00
29169;BME280;16219;42.864;23.360;2023-01-29T10:25:51;96161.13;;;1.83;100.00
29169;BME280;16219;42.864;23.360;2023-01-29T10:28:25;96152.13;;;1.69;100.00
29169;BME280;16219;42.864;23.360;2023-01-29T10:30:57;96162.41;;;1.81;100.00
29169;BME280;16219;42.864;23.360;2023-01-29T10:33:32;96144.94;;;1.76;100.00
29169;BME280;16219;42.864;23.360;2023-01-29T10:36:04;96152.56;;;1.83;100.00
29169;BME280;16219;42.864;23.360;2023-01-29T10:38:39;96160.53;;;1.76;100.00
29169;BME280;16219;42.864;23.360;2023-01-29T10:41:30;96155.50;;;1.69;100.00
29169;BME280;16219;42.864;23.360;2023-01-29T10:44:24;96159.34;;;1.62;100.00
29169;BME280;16219;42.864;23.360;2023-01-29T10:47:11;96144.09;;;1.48;100.00
29169;BME280;16219;42.864;23.360;2023-01-29T10:49:59;96150.34;;;1.47;100.00
29169;BME280;16219;42.864;23.360;2023-01-29T10:52:41;96149.75;;;1.40;100.00
29169;BME280;16219;42.864;23.360;2023-01-29T10:55:22;96146.06;;;1.36;100.00
29169;BME280;16219;42.864;23.360;2023-01-29T10:58:01;96150.22;;;1.37;100.00
29169;BME280;16219;42.864;23.360;2023-01-29T11:00:37;96144.59;;;1.45;100.00
29169;BME280;16219;42.864;23.360;2023-01-29T11:03:14;96122.72;;;1.41;100.00
29169;BME280;16219;42.864;23.360;2023-01-29T11:05:45;96144.53;;;1.62;100.00
29169;BME280;16219;42.864;23.360;2023-01-29T11:08:17;96138.09;;;1.70;100.00
29169;BME280;16219;42.864;23.360;2023-01-29T11:10:53;96137.31;;;1.69;100.00
29169;BME280;16219;42.864;23.360;2023-01-29T11:13:26;96114.91;;;1.63;100.00
29169;BME280;16219;42.864;23.360;2023-01-29T11:15:57;96136.56;;;1.74;100.00
29169;BME280;16219;42.864;23.360;2023-01-29T11:18:24;96126.75;;;1.81;100.00
29169;BME280;16219;42.864;23.360;2023-01-29T11:20:59;96124.13;;;1.76;100.00
29169;BME280;16219;42.864;23.360;2023-01-29T11:23:29;96121.47;;;1.71;100.00
29169;BME280;16219;42.864;23.360;2023-01-29T11:25:59;96122.69;;;1.63;100.00
29169;BME280;16219;42.864;23.360;2023-01-29T11:28:38;96124.94;;;1.55;100.00
29169;BME280;16219;42.864;23.360;2023-01-29T11:31:17;96122.34;;;1.55;100.00
29169;BME280;16219;42.864;23.360;2023-01-29T11:33:46;96121.88;;;1.58;100.00
29169;BME280;16219;42.864;23.360;2023-01-29T11:36:21;96097.94;;;1.61;100.00
29169;BME280;16219;42.864;23.360;2023-01-29T11:39:07;96102.19;;;1.67;100.00
29169;BME280;16219;42.864;23.360;2023-01-29T11:41:42;96112.03;;;1.65;100.00
29169;BME280;16219;42.864;23.360;2023-01-29T11:44:17;96109.34;;;1.55;100.00
29169;BME280;16219;42.864;23.360;2023-01-29T11:46:46;96102.63;;;1.59;100.00
29169;BME280;16219;42.864;23.360;2023-01-29T11:49:31;96107.53;;;1.55;100.00
29169;BME280;16219;42.864;23.360;2023-01-29T11:52:02;96102.47;;;1.43;100.00
29169;BME280;16219;42.864;23.360;2023-01-29T11:54:33;96105.25;;;1.37;100.00
29169;BME280;16219;42.864;23.360;2023-01-29T11:57:03;96103.44;;;1.37;100.00
29169;BME280;16219;42.864;23.360;2023-01-29T11:59:40;96110.69;;;1.35;100.00
29169;BME280;16219;42.864;23.360;2023-01-29T12:02:24;96102.88;;;1.35;100.00
29169;BME280;16219;42.864;23.360;2023-01-29T12:04:56;96104.97;;;1.33;100.00
29169;BME280;16219;42.864;23.360;2023-01-29T12:07:25;96100.84;;;1.37;100.00
29169;BME280;16219;42.864;23.360;2023-01-29T12:09:55;96096.59;;;1.31;100.00
29169;BME280;16219;42.864;23.360;2023-01-29T12:12:29;96094.00;;;1.31;100.00
29169;BME280;16219;42.864;23.360;2023-01-29T12:15:16;96096.59;;;1.31;100.00
29169;BME280;16219;42.864;23.360;2023-01-29T12:17:52;96101.69;;;1.43;100.00
29169;BME280;16219;42.864;23.360;2023-01-29T12:20:26;96095.25;;;1.50;100.00
29169;BME280;16219;42.864;23.360;2023-01-29T12:23:02;96096.94;;;1.62;100.00
29169;BME280;16219;42.864;23.360;2023-01-29T12:25:39;96094.63;;;1.65;100.00
29169;BME280;16219;42.864;23.360;2023-01-29T12:28:18;96096.63;;;1.85;100.00
29169;BME280;16219;42.864;23.360;2023-01-29T12:30:54;96091.00;;;1.98;100.00
29169;BME280;16219;42.864;23.360;2023-01-29T12:33:37;96089.69;;;2.28;100.00
29169;BME280;16219;42.864;23.360;2023-01-29T12:36:11;96087.97;;;2.44;100.00
29169;BME280;16219;42.864;23.360;2023-01-29T12:38:43;96105.75;;;2.57;100.00
29169;BME280;16219;42.864;23.360;2023-01-29T12:41:27;96097.19;;;2.62;100.00
29169;BME280;16219;42.864;23.360;2023-01-29T12:43:57;96092.09;;;2.82;100.00
29169;BME280;16219;42.864;23.360;2023-01-29T12:46:27;96081.41;;;2.84;100.00
29169;BME280;16219;42.864;23.360;2023-01-29T12:49:01;96091.16;;;3.04;100.00
29169;BME280;16219;42.864;23.360;2023-01-29T12:51:33;96091.16;;;3.04;100.00
29169;BME280;16219;42.864;23.360;2023-01-29T12:54:05;96092.50;;;3.11;100.00
29169;BME280;16219;42.864;23.360;2023-01-29T12:56:36;96088.84;;;3.12;100.00
29169;BME280;16219;42.864;23.360;2023-01-29T12:59:14;96091.75;;;3.21;100.00
29169;BME280;16219;42.864;23.360;2023-01-29T13:01:49;96091.25;;;3.24;100.00
29169;BME280;16219;42.864;23.360;2023-01-29T13:04:28;96090.47;;;3.34;100.00
29169;BME280;16219;42.864;23.360;2023-01-29T13:07:04;96095.75;;;3.54;100.00
29169;BME280;16219;42.864;23.360;2023-01-29T13:09:36;96093.91;;;3.44;100.00
29169;BME280;16219;42.864;23.360;2023-01-29T13:12:11;96092.06;;;3.40;100.00
29169;BME280;16219;42.864;23.360;2023-01-29T13:14:44;96102.47;;;3.40;100.00
29169;BME280;16219;42.864;23.360;2023-01-29T13:17:18;96078.22;;;3.29;100.00
29169;BME280;16219;42.864;23.360;2023-01-29T13:19:49;96090.25;;;3.40;100.00
29169;BME280;16219;42.864;23.360;2023-01-29T13:22:22;96105.91;;;3.50;100.00
29169;BME280;16219;42.864;23.360;2023-01-29T13:24:51;96103.28;;;3.45;100.00